createdAt,value
2019-03-26T00:00:11.353Z,4.46
2019-03-26T00:03:11.261Z,4.51
2019-03-26T00:04:11.302Z,4.59
2019-03-26T00:05:11.509Z,4.61
2019-03-26T00:06:11.191Z,4.63
2019-03-26T00:07:11.165Z,4.63
2019-03-26T00:08:11.139Z,4.71
2019-03-26T00:09:11.115Z,4.67
2019-03-26T00:10:11.196Z,4.74
2019-03-26T00:11:11.386Z,4.82
2019-03-26T00:12:11.032Z,4.72
2019-03-26T00:14:10.987Z,4.86
2019-03-26T00:15:10.983Z,4.91
2019-03-26T00:16:10.932Z,4.91
2019-03-26T00:17:11.212Z,4.94
2019-03-26T00:18:10.889Z,4.91
2019-03-26T00:19:11.255Z,4.93
2019-03-26T00:20:11.134Z,4.94
2019-03-26T00:21:10.817Z,4.96
2019-03-26T00:22:10.988Z,4.93
2019-03-26T00:23:11.061Z,4.88
2019-03-26T00:24:10.729Z,4.86
2019-03-26T00:25:10.723Z,4.79
2019-03-26T00:27:10.667Z,4.77
2019-03-26T00:39:10.357Z,4.57
2019-03-26T00:40:10.329Z,4.49
2019-03-26T00:45:10.197Z,4.57
2019-03-26T00:49:10.099Z,4.60
2019-03-26T00:57:10.293Z,4.67
2019-03-26T01:15:09.494Z,4.97
2019-03-26T03:05:06.730Z,5.52
2019-03-26T03:11:06.578Z,5.59
2019-03-26T03:14:06.787Z,5.62
2019-03-26T04:50:04.208Z,5.36
2019-03-26T04:51:04.093Z,5.48
2019-03-26T04:55:03.973Z,5.48
2019-03-26T04:56:03.955Z,5.48
2019-03-26T05:11:03.713Z,5.58
2019-03-26T05:14:03.545Z,5.55
2019-03-26T05:15:03.853Z,5.54
2019-03-26T05:16:03.714Z,5.58
2019-03-26T05:17:03.450Z,5.55
2019-03-26T05:18:03.503Z,5.58
2019-03-26T05:19:03.450Z,5.54
2019-03-26T05:20:04.182Z,5.50
2019-03-26T05:23:03.298Z,5.62
2019-03-26T05:25:03.380Z,5.62
2019-03-26T05:26:03.276Z,5.65
2019-03-26T05:27:03.304Z,5.67
2019-03-26T05:28:03.519Z,5.66
2019-03-26T05:30:03.252Z,5.62
2019-03-26T05:31:03.109Z,5.62
2019-03-26T05:32:03.065Z,5.67
2019-03-26T05:33:03.085Z,5.72
2019-03-26T05:34:03.349Z,5.79
2019-03-26T05:35:03.000Z,5.76
2019-03-26T05:37:03.447Z,5.76
2019-03-26T05:40:02.966Z,5.79
2019-03-26T05:41:03.190Z,5.80
2019-03-26T05:42:02.817Z,5.76
2019-03-26T05:43:02.822Z,5.75
2019-03-26T05:44:02.777Z,5.77
2019-03-26T05:45:03.357Z,5.73
2019-03-26T05:46:02.721Z,5.82
2019-03-26T05:55:02.898Z,5.62
2019-03-26T05:58:02.938Z,5.76
2019-03-26T06:15:02.305Z,6.03
2019-03-26T06:17:03.611Z,6.13
2019-03-26T06:18:02.427Z,6.12
2019-03-26T06:19:03.020Z,6.06
2019-03-26T06:22:03.178Z,6.15
2019-03-26T06:23:01.991Z,6.16
2019-03-26T06:24:02.600Z,6.12
2019-03-26T06:27:01.901Z,6.24
2019-03-26T06:28:02.019Z,6.24
2019-03-26T06:31:01.642Z,6.43
2019-03-26T06:32:01.606Z,6.49
2019-03-26T06:33:01.610Z,6.56
2019-03-26T06:34:01.547Z,6.45
2019-03-26T06:35:01.875Z,6.60
2019-03-26T06:36:01.499Z,6.64
2019-03-26T06:37:01.494Z,6.63
2019-03-26T06:39:01.695Z,6.64
2019-03-26T06:40:02.288Z,6.68
2019-03-26T06:41:01.976Z,6.61
2019-03-26T06:42:01.832Z,6.46
2019-03-26T06:43:01.626Z,6.45
2019-03-26T06:44:01.387Z,6.42
2019-03-26T06:45:01.282Z,6.57
2019-03-26T06:46:01.261Z,6.61
2019-03-26T06:47:01.232Z,6.63
2019-03-26T06:48:04.647Z,6.61
2019-03-26T06:52:01.125Z,6.57
2019-03-26T06:57:01.072Z,6.42
2019-03-26T06:59:00.974Z,6.45
2019-03-26T07:00:01.000Z,6.43
2019-03-26T07:02:01.253Z,6.46
2019-03-26T07:03:01.008Z,6.57
2019-03-26T07:04:00.913Z,6.45
2019-03-26T07:05:00.849Z,6.53
2019-03-26T07:06:01.061Z,6.47
2019-03-26T07:07:00.789Z,6.46
2019-03-26T07:08:01.144Z,6.42
2019-03-26T07:09:00.797Z,6.45
2019-03-26T07:10:00.687Z,6.43
2019-03-26T07:11:00.730Z,6.43
2019-03-26T07:13:00.675Z,6.53
2019-03-26T07:15:00.632Z,6.60
2019-03-26T07:16:00.559Z,6.65
2019-03-26T07:17:00.549Z,6.63
2019-03-26T07:18:00.517Z,6.60
2019-03-26T07:19:00.517Z,6.63
2019-03-26T07:20:00.467Z,6.64
2019-03-26T07:21:00.445Z,6.73
2019-03-26T07:22:00.436Z,6.92
2019-03-26T07:30:00.381Z,7.44
2019-03-26T07:31:00.280Z,7.58
2019-03-26T07:32:00.943Z,7.24
2019-03-26T07:33:00.580Z,7.28
2019-03-26T07:34:00.164Z,7.33
2019-03-26T07:35:00.109Z,7.26
2019-03-26T07:37:00.088Z,7.37
2019-03-26T07:41:01.582Z,7.42
2019-03-26T07:42:00.362Z,7.37
2019-03-26T07:43:00.435Z,7.28
2019-03-26T07:44:59.913Z,7.34
2019-03-26T07:46:00.249Z,7.24
2019-03-26T07:46:59.862Z,7.37
2019-03-26T07:48:01.092Z,7.44
2019-03-26T07:50:00.373Z,7.52
2019-03-26T07:51:01.180Z,7.57
2019-03-26T07:51:59.750Z,7.49
2019-03-26T07:54:59.665Z,7.87
2019-03-26T08:12:59.294Z,8.05
2019-03-26T08:14:59.263Z,8.49
2019-03-26T08:15:59.283Z,8.32
2019-03-26T08:19:59.148Z,8.20
2019-03-26T08:20:59.149Z,8.68
2019-03-26T08:23:59.052Z,8.50
2019-03-26T08:38:58.756Z,8.78
2019-03-26T08:40:58.711Z,9.12
2019-03-26T08:42:58.999Z,8.60
2019-03-26T08:43:59.669Z,8.55
2019-03-26T08:44:58.730Z,8.44
2019-03-26T08:45:58.607Z,8.42
2019-03-26T08:46:58.589Z,8.34
2019-03-26T08:47:58.636Z,8.35
2019-03-26T08:48:58.603Z,8.21
2019-03-26T08:50:58.514Z,8.29
2019-03-26T08:51:58.488Z,8.34
2019-03-26T08:53:58.474Z,8.28
2019-03-26T08:54:58.722Z,8.39
2019-03-26T08:55:58.430Z,8.98
2019-03-26T08:56:58.388Z,8.80
2019-03-26T08:58:58.344Z,8.56
2019-03-26T08:59:58.401Z,8.44
2019-03-26T09:21:57.874Z,8.60
2019-03-26T09:27:58.111Z,8.42
2019-03-26T09:28:57.737Z,8.38
2019-03-26T09:34:58.223Z,8.55
2019-03-26T09:36:57.643Z,8.52
2019-03-26T09:38:58.982Z,8.42
2019-03-26T09:39:57.641Z,8.52
2019-03-26T09:40:57.790Z,8.55
2019-03-26T09:41:57.501Z,8.55
2019-03-26T09:43:57.428Z,8.46
2019-03-26T09:44:57.405Z,8.50
2019-03-26T09:47:57.363Z,8.28
2019-03-26T09:48:57.326Z,8.31
2019-03-26T09:49:57.304Z,8.29
2019-03-26T09:50:57.275Z,8.35
2019-03-26T09:51:57.286Z,8.34
2019-03-26T09:52:57.527Z,8.21
2019-03-26T09:53:57.324Z,8.06
2019-03-26T09:54:57.184Z,8.04
2019-03-26T09:55:57.169Z,7.91
2019-03-26T09:59:57.192Z,7.76
2019-03-26T10:16:56.700Z,9.52
2019-03-26T10:17:56.983Z,9.83
2019-03-26T10:21:56.796Z,10.57
2019-03-26T10:22:56.590Z,9.88
2019-03-26T10:23:56.622Z,10.21
2019-03-26T10:25:56.615Z,11.11
2019-03-26T10:33:56.378Z,11.70
2019-03-26T10:34:56.400Z,11.96
2019-03-26T10:35:56.330Z,11.31
2019-03-26T10:36:56.325Z,10.98
2019-03-26T10:37:56.753Z,10.83
2019-03-26T10:39:05.406Z,11.33
2019-03-26T10:39:56.310Z,11.64
2019-03-26T10:40:56.285Z,11.28
2019-03-26T10:41:56.293Z,11.71
2019-03-26T10:42:56.223Z,11.49
2019-03-26T10:43:56.275Z,11.13
2019-03-26T10:44:56.506Z,10.94
2019-03-26T10:45:59.417Z,11.05
2019-03-26T10:49:56.241Z,10.23
2019-03-26T10:50:56.163Z,10.67
2019-03-26T10:51:56.380Z,10.57
2019-03-26T10:52:56.126Z,10.36
2019-03-26T10:54:56.024Z,10.05
2019-03-26T10:55:56.538Z,9.96
2019-03-26T10:56:55.996Z,9.84
2019-03-26T10:57:56.053Z,9.75
2019-03-26T10:58:56.317Z,9.41
2019-03-26T10:59:55.929Z,9.19
2019-03-26T11:00:55.912Z,9.15
2019-03-26T11:03:55.877Z,8.90
2019-03-26T11:05:56.140Z,8.68
2019-03-26T11:08:55.829Z,7.95
2019-03-26T11:09:55.761Z,7.95
2019-03-26T11:14:55.649Z,7.98
2019-03-26T11:15:58.814Z,8.04
2019-03-26T11:16:57.418Z,8.02
2019-03-26T11:17:56.183Z,7.95
2019-03-26T11:21:02.784Z,8.10
2019-03-26T11:21:55.682Z,8.35
2019-03-26T11:22:55.522Z,8.39
2019-03-26T11:23:55.465Z,8.95
2019-03-26T11:24:56.170Z,9.16
2019-03-26T11:25:55.794Z,9.09
2019-03-26T11:27:55.777Z,9.06
2019-03-26T11:28:56.285Z,9.24
2019-03-26T11:29:55.329Z,9.14
2019-03-26T11:30:55.556Z,9.26
2019-03-26T11:31:55.369Z,9.41
2019-03-26T11:32:55.384Z,9.72
2019-03-26T11:34:55.241Z,10.05
2019-03-26T11:35:55.515Z,9.93
2019-03-26T11:36:55.205Z,9.98
2019-03-26T11:37:55.212Z,10.02
2019-03-26T11:38:55.318Z,10.06
2019-03-26T11:39:55.126Z,9.94
2019-03-26T11:41:55.455Z,10.48
2019-03-26T11:42:55.454Z,10.98
2019-03-26T11:43:55.054Z,11.27
2019-03-26T11:44:55.060Z,10.95
2019-03-26T11:45:55.131Z,10.45
2019-03-26T11:46:55.043Z,10.24
2019-03-26T11:47:55.009Z,9.98
2019-03-26T11:48:55.277Z,9.85
2019-03-26T11:49:54.958Z,9.88
2019-03-26T11:51:56.135Z,9.63
2019-03-26T11:53:54.895Z,9.77
2019-03-26T11:54:54.972Z,9.98
2019-03-26T11:55:55.248Z,9.84
2019-03-26T11:57:54.849Z,9.94
2019-03-26T11:59:54.783Z,9.67
2019-03-26T12:00:55.024Z,9.81
2019-03-26T12:01:54.754Z,9.94
2019-03-26T12:02:54.802Z,9.83
2019-03-26T12:03:54.795Z,9.70
2019-03-26T12:04:54.695Z,9.98
2019-03-26T12:11:54.622Z,9.65
2019-03-26T12:12:54.572Z,9.60
2019-03-26T12:13:54.539Z,9.69
2019-03-26T12:14:54.542Z,9.45
2019-03-26T12:15:54.510Z,9.42
2019-03-26T12:16:54.484Z,9.52
2019-03-26T12:17:54.874Z,9.69
2019-03-26T12:18:54.476Z,9.78
2019-03-26T12:21:55.646Z,9.75
2019-03-26T12:22:54.790Z,9.73
2019-03-26T12:23:55.674Z,9.67
2019-03-26T12:24:54.712Z,9.59
2019-03-26T12:28:55.607Z,9.59
2019-03-26T12:29:54.279Z,9.54
2019-03-26T12:30:54.656Z,9.60
2019-03-26T12:31:56.215Z,9.47
2019-03-26T12:33:54.151Z,9.37
2019-03-26T12:35:54.175Z,9.44
2019-03-26T12:36:54.141Z,9.50
2019-03-26T12:37:54.393Z,9.45
2019-03-26T12:44:53.928Z,9.50
2019-03-26T12:45:53.946Z,9.36
2019-03-26T12:46:54.205Z,9.50
2019-03-26T12:48:53.885Z,9.40
2019-03-26T12:56:53.699Z,9.41
2019-03-26T12:57:53.880Z,9.37
2019-03-26T12:58:53.640Z,9.41
2019-03-26T13:00:54.057Z,9.33
2019-03-26T13:01:53.571Z,9.44
2019-03-26T13:06:53.809Z,9.40
2019-03-26T13:16:53.373Z,9.32
2019-03-26T13:17:53.435Z,9.33
2019-03-26T13:18:53.364Z,9.32
2019-03-26T13:19:53.612Z,9.32
2019-03-26T13:21:53.243Z,9.22
2019-03-26T13:22:53.126Z,9.19
2019-03-26T13:26:53.117Z,9.27
2019-03-26T13:28:58.921Z,9.44
2019-03-26T13:32:53.638Z,9.42
2019-03-26T13:33:53.071Z,9.51
2019-03-26T13:34:53.762Z,9.40
2019-03-26T13:35:52.857Z,9.44
2019-03-26T13:36:54.437Z,9.41
2019-03-26T13:38:54.204Z,9.42
2019-03-26T13:40:53.067Z,9.52
2019-03-26T13:41:52.750Z,9.48
2019-03-26T13:42:52.900Z,9.50
2019-03-26T13:43:52.688Z,9.60
2019-03-26T13:44:52.780Z,9.66
2019-03-26T13:45:52.667Z,9.59
2019-03-26T13:46:52.914Z,9.62
2019-03-26T13:47:53.011Z,9.72
2019-03-26T13:48:52.727Z,9.73
2019-03-26T13:51:53.526Z,9.75
2019-03-26T13:52:52.600Z,9.75
2019-03-26T13:53:52.633Z,9.75
2019-03-26T13:54:55.059Z,9.69
2019-03-26T13:55:52.459Z,9.66
2019-03-26T14:10:52.141Z,9.29
2019-03-26T14:11:52.170Z,9.32
2019-03-26T14:21:51.896Z,9.70
2019-03-26T14:22:51.949Z,9.65
2019-03-26T14:24:51.849Z,9.63
2019-03-26T14:32:52.001Z,9.37
2019-03-26T14:33:51.660Z,9.24
2019-03-26T14:35:51.639Z,9.44
2019-03-26T14:36:51.607Z,9.42
2019-03-26T14:37:51.846Z,9.41
2019-03-26T14:40:55.203Z,9.19
2019-03-26T14:41:51.530Z,9.23
2019-03-26T14:42:51.453Z,9.23
2019-03-26T14:43:51.436Z,9.23
2019-03-26T14:44:51.422Z,9.24
2019-03-26T14:45:51.430Z,9.15
2019-03-26T15:02:51.325Z,8.89
2019-03-26T15:04:50.989Z,8.96
2019-03-26T15:05:50.975Z,8.96
2019-03-26T15:07:50.921Z,8.98
2019-03-26T15:09:51.174Z,8.96
2019-03-26T15:10:50.846Z,8.96
2019-03-26T15:11:50.850Z,8.99
2019-03-26T15:13:50.794Z,9.06
2019-03-26T15:14:50.774Z,9.22
2019-03-26T15:15:50.746Z,9.08
2019-03-26T15:16:51.019Z,9.08
2019-03-26T15:18:50.745Z,9.08
2019-03-26T15:19:50.663Z,9.09
2019-03-26T15:20:50.637Z,9.01
2019-03-26T15:21:50.910Z,9.19
2019-03-26T15:22:52.008Z,9.23
2019-03-26T15:23:50.680Z,9.14
2019-03-26T15:24:50.611Z,9.18
2019-03-26T15:27:50.487Z,9.23
2019-03-26T15:28:50.756Z,9.29
2019-03-26T15:29:50.444Z,9.29
2019-03-26T15:30:50.416Z,9.33
2019-03-26T15:31:50.514Z,9.26
2019-03-26T15:35:50.315Z,9.33
2019-03-26T15:36:50.309Z,9.30
2019-03-26T15:37:50.269Z,9.27
2019-03-26T15:38:50.253Z,9.40
2019-03-26T15:39:50.524Z,9.27
2019-03-26T15:44:50.127Z,9.44
2019-03-26T15:50:49.988Z,9.41
2019-03-26T15:52:50.313Z,9.40
2019-03-26T15:53:50.045Z,9.36
2019-03-26T15:54:50.016Z,9.40
2019-03-26T15:55:49.953Z,9.45
2019-03-26T15:56:49.861Z,9.44
2019-03-26T15:58:50.106Z,9.42
2019-03-26T15:59:49.813Z,9.42
2019-03-26T16:00:49.791Z,9.47
2019-03-26T16:01:49.753Z,9.45
2019-03-26T16:02:49.732Z,9.40
2019-03-26T16:08:49.625Z,9.40
2019-03-26T16:09:49.592Z,9.42
2019-03-26T16:10:49.582Z,9.44
2019-03-26T16:11:49.558Z,9.40
2019-03-26T16:12:49.825Z,9.34
2019-03-26T16:13:49.498Z,9.23
2019-03-26T16:14:49.601Z,9.33
2019-03-26T16:15:51.820Z,9.33
2019-03-26T16:16:49.560Z,9.33
2019-03-26T16:17:49.526Z,9.32
2019-03-26T16:18:49.401Z,9.33
2019-03-26T16:19:49.717Z,9.24
2019-03-26T16:20:49.373Z,9.29
2019-03-26T16:23:49.294Z,9.27
2019-03-26T16:24:50.773Z,9.34
2019-03-26T16:25:49.282Z,9.27
2019-03-26T16:26:49.522Z,9.30
2019-03-26T16:27:49.307Z,9.29
2019-03-26T16:31:50.441Z,9.26
2019-03-26T16:32:49.528Z,9.32
2019-03-26T16:34:49.170Z,9.27
2019-03-26T16:35:49.038Z,9.26
2019-03-26T16:36:59.580Z,9.29
2019-03-26T16:37:49.123Z,9.16
2019-03-26T16:38:49.039Z,9.19
2019-03-26T16:39:49.124Z,9.14
2019-03-26T16:40:49.281Z,9.11
2019-03-26T16:41:49.689Z,9.24
2019-03-26T16:42:48.880Z,9.11
2019-03-26T16:43:48.966Z,9.08
2019-03-26T16:44:48.860Z,9.06
2019-03-26T16:45:48.814Z,9.06
2019-03-26T16:50:48.701Z,8.81
2019-03-26T16:53:48.963Z,8.71
2019-03-26T16:54:48.616Z,8.67
2019-03-26T16:55:48.607Z,8.60
2019-03-26T16:56:48.562Z,8.53
2019-03-26T17:03:48.478Z,8.50
2019-03-26T17:05:49.352Z,8.42
2019-03-26T17:06:48.341Z,8.41
2019-03-26T17:07:48.345Z,8.37
2019-03-26T17:09:48.281Z,8.37
2019-03-26T17:10:48.703Z,8.37
2019-03-26T17:12:02.123Z,8.31
2019-03-26T17:12:48.517Z,8.37
2019-03-26T17:13:48.180Z,8.32
2019-03-26T17:14:48.170Z,8.31
2019-03-26T17:15:48.144Z,8.23
2019-03-26T17:17:48.089Z,8.17
2019-03-26T17:18:48.377Z,8.14
2019-03-26T17:20:48.247Z,8.19
2019-03-26T17:21:48.004Z,8.21
2019-03-26T17:22:47.989Z,8.19
2019-03-26T17:23:48.038Z,8.28
2019-03-26T17:24:48.380Z,8.19
2019-03-26T17:25:47.967Z,8.16
2019-03-26T17:28:47.910Z,8.10
2019-03-26T17:29:47.827Z,8.16
2019-03-26T17:30:47.910Z,8.14
2019-03-26T17:31:48.506Z,8.19
2019-03-26T17:32:47.848Z,8.12
2019-03-26T17:33:47.831Z,8.16
2019-03-26T17:36:47.664Z,8.12
2019-03-26T17:37:58.943Z,8.20
2019-03-26T17:38:47.910Z,8.16
2019-03-26T17:42:47.525Z,8.17
2019-03-26T17:43:47.493Z,8.13
2019-03-26T17:44:47.462Z,8.16
2019-03-26T17:45:48.153Z,8.13
2019-03-26T17:47:47.440Z,8.10
2019-03-26T17:49:47.471Z,8.10
2019-03-26T17:50:47.421Z,8.05
2019-03-26T17:51:47.319Z,8.05
2019-03-26T17:52:47.590Z,8.01
2019-03-26T17:53:47.265Z,8.01
2019-03-26T17:54:47.244Z,8.01
2019-03-26T17:55:47.370Z,8.02
2019-03-26T18:02:47.107Z,7.87
2019-03-26T18:03:47.036Z,7.84
2019-03-26T18:04:47.101Z,7.86
2019-03-26T18:05:47.142Z,7.78
2019-03-26T18:06:47.260Z,7.78
2019-03-26T18:07:47.596Z,7.78
2019-03-26T18:09:47.228Z,7.78
2019-03-26T18:10:47.182Z,7.78
2019-03-26T18:11:46.846Z,7.74
2019-03-26T18:12:47.126Z,7.84
2019-03-26T18:13:47.115Z,7.73
2019-03-26T18:14:46.778Z,7.86
2019-03-26T18:15:46.853Z,7.78
2019-03-26T18:16:46.728Z,7.74
2019-03-26T18:17:46.725Z,7.74
2019-03-26T18:18:47.092Z,7.86
2019-03-26T18:19:46.676Z,7.84
2019-03-26T18:20:46.642Z,7.76
2019-03-26T18:21:51.645Z,7.76
2019-03-26T18:22:46.879Z,7.81
2019-03-26T18:24:48.241Z,7.81
2019-03-26T18:25:46.842Z,7.91
2019-03-26T18:26:46.501Z,7.88
2019-03-26T18:27:46.474Z,7.94
2019-03-26T18:28:46.480Z,7.87
2019-03-26T18:29:46.668Z,7.96
2019-03-26T18:30:46.416Z,7.87
2019-03-26T18:31:46.818Z,7.88
2019-03-26T18:32:46.681Z,7.94
2019-03-26T18:33:47.464Z,7.88
2019-03-26T18:34:47.285Z,7.96
2019-03-26T18:35:47.690Z,7.98
2019-03-26T18:36:47.439Z,7.95
2019-03-26T18:38:46.440Z,8.02
2019-03-26T18:39:46.314Z,8.05
2019-03-26T18:40:46.200Z,8.01
2019-03-26T18:41:46.157Z,7.99
2019-03-26T18:42:46.191Z,8.04
2019-03-26T18:44:46.172Z,8.13
2019-03-26T18:46:46.028Z,8.20
2019-03-26T18:47:46.052Z,8.17
2019-03-26T18:49:46.022Z,8.21
2019-03-26T18:50:46.233Z,8.21
2019-03-26T18:52:45.994Z,8.19
2019-03-26T18:53:46.008Z,8.23
2019-03-26T18:55:46.138Z,8.20
2019-03-26T18:56:45.918Z,8.21
2019-03-26T18:57:46.131Z,8.23
2019-03-26T19:00:46.040Z,8.17
2019-03-26T19:01:45.688Z,8.13
2019-03-26T19:03:45.649Z,8.21
2019-03-26T19:04:46.229Z,8.19
2019-03-26T19:05:45.770Z,8.19
2019-03-26T19:07:48.159Z,8.17
2019-03-26T19:08:45.565Z,8.21
2019-03-26T19:09:45.576Z,8.21
2019-03-26T19:10:45.808Z,8.21
2019-03-26T19:11:45.898Z,8.23
2019-03-26T19:12:56.462Z,8.28
2019-03-26T19:13:45.398Z,8.20
2019-03-26T19:15:45.359Z,8.28
2019-03-26T19:17:45.349Z,8.31
2019-03-26T19:18:47.506Z,8.28
2019-03-26T19:20:45.258Z,8.34
2019-03-26T19:21:45.238Z,8.23
2019-03-26T19:22:45.311Z,8.26
2019-03-26T19:23:45.664Z,8.23
2019-03-26T19:24:45.451Z,8.14
2019-03-26T19:25:45.554Z,8.26
2019-03-26T19:26:45.107Z,8.32
2019-03-26T19:27:45.077Z,8.34
2019-03-26T19:29:45.060Z,8.29
2019-03-26T19:58:44.411Z,8.42
2019-03-26T20:19:44.241Z,8.29
2019-03-26T20:20:44.027Z,8.35
2019-03-26T20:21:43.858Z,8.41
2019-03-26T20:24:43.812Z,8.32
2019-03-26T20:26:43.702Z,8.31
2019-03-26T20:28:44.779Z,8.32
2019-03-26T20:29:44.001Z,8.31
2019-03-26T20:30:45.621Z,8.32
2019-03-26T20:31:43.709Z,8.31
2019-03-26T20:32:43.667Z,8.34
2019-03-26T20:33:43.875Z,8.20
2019-03-26T20:36:45.243Z,8.21
2019-03-26T20:37:44.845Z,8.31
2019-03-26T20:38:43.445Z,8.31
2019-03-26T20:41:43.818Z,8.21
2019-03-26T20:43:43.750Z,8.21
2019-03-26T20:45:43.342Z,8.21
2019-03-26T20:46:43.232Z,8.19
2019-03-26T20:47:43.508Z,8.24
2019-03-26T20:48:43.590Z,8.23
2019-03-26T20:49:43.244Z,8.19
2019-03-26T20:50:43.219Z,8.28
2019-03-26T20:51:43.523Z,8.19
2019-03-26T20:52:43.197Z,8.13
2019-03-26T20:53:43.071Z,8.20
2019-03-26T20:54:43.120Z,8.09
2019-03-26T20:56:43.121Z,8.13
2019-03-26T21:22:42.399Z,7.98
2019-03-26T21:23:42.678Z,8.01
2019-03-26T21:24:42.356Z,8.01
2019-03-26T21:26:42.307Z,7.91
2019-03-26T21:27:42.276Z,7.92
2019-03-26T21:28:42.250Z,7.91
2019-03-26T21:29:42.535Z,7.81
2019-03-26T21:43:41.900Z,7.57
2019-03-26T21:44:41.888Z,7.58
2019-03-26T21:50:42.155Z,7.55
2019-03-26T21:51:43.449Z,7.42
2019-03-26T21:52:41.704Z,7.40
2019-03-26T21:53:41.843Z,7.44
2019-03-26T21:54:41.682Z,7.36
2019-03-26T21:55:42.337Z,7.40
2019-03-26T21:56:41.802Z,7.36
2019-03-26T21:57:42.181Z,7.31
2019-03-26T21:58:42.407Z,7.28
2019-03-26T21:59:42.069Z,7.33
2019-03-26T22:00:44.461Z,7.26
2019-03-26T22:01:42.898Z,7.28
2019-03-26T22:02:41.464Z,7.16
2019-03-26T22:03:41.455Z,7.18
2019-03-26T22:04:41.865Z,7.18
2019-03-26T22:05:41.541Z,7.11
2019-03-26T22:06:41.471Z,7.10
2019-03-26T22:07:42.068Z,7.10
2019-03-26T22:09:41.307Z,7.16
2019-03-26T22:10:41.377Z,7.11
2019-03-26T22:11:49.801Z,7.04
2019-03-26T22:14:41.549Z,7.03
2019-03-26T22:15:41.603Z,7.04
2019-03-26T22:16:41.408Z,6.89
2019-03-26T22:17:41.166Z,7.03
2019-03-26T22:19:42.304Z,6.99
2019-03-26T22:22:41.195Z,6.97
2019-03-26T22:23:42.459Z,6.93
2019-03-26T22:24:41.989Z,6.88
2019-03-26T22:26:41.380Z,6.92
2019-03-26T22:29:41.024Z,6.89
2019-03-26T22:30:42.195Z,6.92
2019-03-26T22:33:40.880Z,6.86
2019-03-26T22:34:41.046Z,6.86
2019-03-26T22:35:40.793Z,6.88
2019-03-26T22:36:40.980Z,6.81
2019-03-26T22:39:41.192Z,6.82
2019-03-26T22:40:40.862Z,6.73
2019-03-26T22:42:40.900Z,6.71
2019-03-26T22:43:40.486Z,6.68
2019-03-26T22:45:41.052Z,6.64
2019-03-26T22:46:40.521Z,6.73
2019-03-26T22:47:40.806Z,6.74
2019-03-26T22:48:40.816Z,6.78
2019-03-26T22:50:41.927Z,6.71
2019-03-26T22:51:40.292Z,6.65
2019-03-26T22:52:40.254Z,6.70
2019-03-26T22:54:41.285Z,6.71
2019-03-26T22:55:40.196Z,6.68
2019-03-26T22:56:40.840Z,6.67
2019-03-26T22:58:40.947Z,6.68
2019-03-26T23:00:42.010Z,6.70
2019-03-26T23:01:40.145Z,6.63
2019-03-26T23:05:40.343Z,6.71
2019-03-26T23:06:40.158Z,6.71
2019-03-26T23:08:39.877Z,6.67
2019-03-26T23:09:40.268Z,6.70
2019-03-26T23:11:41.582Z,6.70
2019-03-26T23:13:40.194Z,6.63
2019-03-26T23:14:45.420Z,6.63
2019-03-26T23:15:39.815Z,6.71
2019-03-26T23:17:40.111Z,6.67
2019-03-26T23:18:41.227Z,6.65
2019-03-26T23:19:40.456Z,6.65
2019-03-26T23:20:39.700Z,6.61
2019-03-26T23:21:40.179Z,6.61
2019-03-26T23:23:41.597Z,6.65
2019-03-26T23:24:41.051Z,6.56
2019-03-26T23:25:41.415Z,6.68
2019-03-26T23:26:39.437Z,6.61
2019-03-26T23:27:39.434Z,6.64
2019-03-26T23:28:39.688Z,6.57
2019-03-26T23:29:39.353Z,6.49
2019-03-26T23:30:40.390Z,6.55
2019-03-26T23:31:40.922Z,6.60
2019-03-26T23:32:39.601Z,6.46
2019-03-26T23:35:39.212Z,6.34
2019-03-26T23:36:39.630Z,6.32
2019-03-26T23:37:39.346Z,6.24
2019-03-26T23:38:39.677Z,6.28
2019-03-26T23:39:39.314Z,6.21
2019-03-26T23:40:39.196Z,6.18
2019-03-26T23:41:39.949Z,6.19
2019-03-26T23:42:39.032Z,6.25
2019-03-26T23:43:39.325Z,6.27
2019-03-26T23:44:38.980Z,6.16
2019-03-26T23:45:38.950Z,6.21
2019-03-26T23:46:38.991Z,6.21
2019-03-26T23:47:39.032Z,6.21
2019-03-26T23:48:38.912Z,6.30
2019-03-26T23:49:39.172Z,6.30
2019-03-26T23:50:38.852Z,6.35
2019-03-26T23:51:38.813Z,6.31
2019-03-26T23:52:38.922Z,6.32
2019-03-26T23:54:38.745Z,6.42
2019-03-26T23:55:39.013Z,6.40
2019-03-26T23:56:38.693Z,6.46
2019-03-26T23:57:38.687Z,6.50
2019-03-26T23:58:39.026Z,6.42
2019-03-26T23:59:39.056Z,6.52
